sensor_id;sensor_type;location;lat;lon;timestamp;P1;durP1;ratioP1;P2;durP2;ratioP2
20445;SDS011;10382;49.140;9.234;2024-02-14T00:00:33;13.47;;;5.87;;
20445;SDS011;10382;49.140;9.234;2024-02-14T00:03:00;12.03;;;6.13;;
20445;SDS011;10382;49.140;9.234;2024-02-14T00:05:27;14.47;;;5.63;;
20445;SDS011;10382;49.140;9.234;2024-02-14T00:07:54;9.97;;;6.57;;
20445;SDS011;10382;49.140;9.234;2024-02-14T00:10:23;11.33;;;6.70;;
20445;SDS011;10382;49.140;9.234;2024-02-14T00:12:50;11.33;;;7.20;;
20445;SDS011;10382;49.140;9.234;2024-02-14T00:15:17;17.10;;;7.70;;
20445;SDS011;10382;49.140;9.234;2024-02-14T00:17:44;16.73;;;6.47;;
20445;SDS011;10382;49.140;9.234;2024-02-14T00:20:11;7.33;;;5.20;;
20445;SDS011;10382;49.140;9.234;2024-02-14T00:22:38;6.60;;;4.90;;
20445;SDS011;10382;49.140;9.234;2024-02-14T00:25:05;8.37;;;5.07;;
20445;SDS011;10382;49.140;9.234;2024-02-14T00:27:35;19.73;;;5.73;;
20445;SDS011;10382;49.140;9.234;2024-02-14T00:30:02;11.43;;;6.17;;
20445;SDS011;10382;49.140;9.234;2024-02-14T00:32:30;13.87;;;8.67;;
20445;SDS011;10382;49.140;9.234;2024-02-14T00:34:58;9.30;;;6.53;;
20445;SDS011;10382;49.140;9.234;2024-02-14T00:37:25;17.83;;;6.70;;
20445;SDS011;10382;49.140;9.234;2024-02-14T00:39:53;12.80;;;7.30;;
20445;SDS011;10382;49.140;9.234;2024-02-14T00:42:23;13.53;;;7.00;;
20445;SDS011;10382;49.140;9.234;2024-02-14T00:44:51;10.70;;;6.40;;
20445;SDS011;10382;49.140;9.234;2024-02-14T00:47:18;11.00;;;6.97;;
20445;SDS011;10382;49.140;9.234;2024-02-14T00:49:45;9.70;;;6.03;;
20445;SDS011;10382;49.140;9.234;2024-02-14T00:52:12;11.60;;;6.97;;
20445;SDS011;10382;49.140;9.234;2024-02-14T00:54:39;7.00;;;5.63;;
20445;SDS011;10382;49.140;9.234;2024-02-14T00:57:06;7.77;;;5.90;;
20445;SDS011;10382;49.140;9.234;2024-02-14T00:59:33;10.93;;;6.70;;
20445;SDS011;10382;49.140;9.234;2024-02-14T01:02:01;13.37;;;5.90;;
20445;SDS011;10382;49.140;9.234;2024-02-14T01:04:28;8.73;;;5.10;;
20445;SDS011;10382;49.140;9.234;2024-02-14T01:06:55;10.02;;;5.75;;
20445;SDS011;10382;49.140;9.234;2024-02-14T01:09:23;6.30;;;5.60;;
20445;SDS011;10382;49.140;9.234;2024-02-14T01:11:50;7.85;;;5.13;;
20445;SDS011;10382;49.140;9.234;2024-02-14T01:14:17;11.60;;;5.00;;
20445;SDS011;10382;49.140;9.234;2024-02-14T01:16:44;7.30;;;4.47;;
20445;SDS011;10382;49.140;9.234;2024-02-14T01:19:12;13.13;;;4.30;;
20445;SDS011;10382;49.140;9.234;2024-02-14T01:21:39;6.60;;;4.23;;
20445;SDS011;10382;49.140;9.234;2024-02-14T01:24:07;4.13;;;3.80;;
20445;SDS011;10382;49.140;9.234;2024-02-14T01:26:34;7.83;;;3.37;;
20445;SDS011;10382;49.140;9.234;2024-02-14T01:29:01;4.17;;;3.77;;
20445;SDS011;10382;49.140;9.234;2024-02-14T01:31:27;12.93;;;4.10;;
20445;SDS011;10382;49.140;9.234;2024-02-14T01:33:55;8.23;;;4.40;;
20445;SDS011;10382;49.140;9.234;2024-02-14T01:36:25;8.23;;;4.87;;
20445;SDS011;10382;49.140;9.234;2024-02-14T01:38:52;10.30;;;4.10;;
20445;SDS011;10382;49.140;9.234;2024-02-14T01:41:19;8.43;;;3.73;;
20445;SDS011;10382;49.140;9.234;2024-02-14T01:43:46;9.37;;;4.10;;
20445;SDS011;10382;49.140;9.234;2024-02-14T01:46:13;4.77;;;3.60;;
20445;SDS011;10382;49.140;9.234;2024-02-14T01:48:40;11.63;;;4.63;;
20445;SDS011;10382;49.140;9.234;2024-02-14T01:51:08;9.00;;;3.90;;
20445;SDS011;10382;49.140;9.234;2024-02-14T01:53:38;9.10;;;3.43;;
20445;SDS011;10382;49.140;9.234;2024-02-14T01:56:07;3.50;;;3.20;;
20445;SDS011;10382;49.140;9.234;2024-02-14T01:58:34;10.30;;;4.43;;
20445;SDS011;10382;49.140;9.234;2024-02-14T02:01:03;8.03;;;3.70;;
20445;SDS011;10382;49.140;9.234;2024-02-14T02:03:30;5.93;;;3.37;;
20445;SDS011;10382;49.140;9.234;2024-02-14T02:06:00;5.07;;;3.40;;
20445;SDS011;10382;49.140;9.234;2024-02-14T02:08:28;5.43;;;3.47;;
20445;SDS011;10382;49.140;9.234;2024-02-14T02:10:56;4.23;;;3.83;;
20445;SDS011;10382;49.140;9.234;2024-02-14T02:13:24;6.03;;;4.43;;
20445;SDS011;10382;49.140;9.234;2024-02-14T02:15:51;8.03;;;4.07;;
20445;SDS011;10382;49.140;9.234;2024-02-14T02:18:18;6.50;;;3.50;;
20445;SDS011;10382;49.140;9.234;2024-02-14T02:20:45;4.17;;;3.03;;
20445;SDS011;10382;49.140;9.234;2024-02-14T02:23:14;4.90;;;2.47;;
20445;SDS011;10382;49.140;9.234;2024-02-14T02:25:41;3.43;;;2.70;;
20445;SDS011;10382;49.140;9.234;2024-02-14T02:28:08;2.77;;;2.57;;
20445;SDS011;10382;49.140;9.234;2024-02-14T02:30:35;4.30;;;3.53;;
20445;SDS011;10382;49.140;9.234;2024-02-14T02:33:02;6.10;;;3.17;;
20445;SDS011;10382;49.140;9.234;2024-02-14T02:35:30;5.13;;;3.10;;
20445;SDS011;10382;49.140;9.234;2024-02-14T02:37:57;4.80;;;3.67;;
20445;SDS011;10382;49.140;9.234;2024-02-14T02:40:25;4.30;;;2.90;;
20445;SDS011;10382;49.140;9.234;2024-02-14T02:42:52;7.77;;;3.10;;
20445;SDS011;10382;49.140;9.234;2024-02-14T02:45:19;5.90;;;3.27;;
20445;SDS011;10382;49.140;9.234;2024-02-14T02:47:47;5.07;;;3.60;;
20445;SDS011;10382;49.140;9.234;2024-02-14T02:50:16;4.30;;;3.50;;
20445;SDS011;10382;49.140;9.234;2024-02-14T02:52:43;7.73;;;4.70;;
20445;SDS011;10382;49.140;9.234;2024-02-14T02:55:10;6.50;;;4.40;;
20445;SDS011;10382;49.140;9.234;2024-02-14T02:57:40;4.17;;;3.33;;
20445;SDS011;10382;49.140;9.234;2024-02-14T03:00:09;4.60;;;3.03;;
20445;SDS011;10382;49.140;9.234;2024-02-14T03:02:37;8.43;;;4.90;;
20445;SDS011;10382;49.140;9.234;2024-02-14T03:05:07;5.87;;;4.00;;
20445;SDS011;10382;49.140;9.234;2024-02-14T03:07:35;6.80;;;3.30;;
20445;SDS011;10382;49.140;9.234;2024-02-14T03:10:03;4.87;;;3.43;;
20445;SDS011;10382;49.140;9.234;2024-02-14T03:12:30;4.80;;;3.47;;
20445;SDS011;10382;49.140;9.234;2024-02-14T03:14:59;9.40;;;4.00;;
20445;SDS011;10382;49.140;9.234;2024-02-14T03:17:26;3.93;;;3.20;;
20445;SDS011;10382;49.140;9.234;2024-02-14T03:19:54;5.77;;;4.27;;
20445;SDS011;10382;49.140;9.234;2024-02-14T03:22:21;4.93;;;3.27;;
20445;SDS011;10382;49.140;9.234;2024-02-14T03:24:48;5.17;;;3.37;;
20445;SDS011;10382;49.140;9.234;2024-02-14T03:27:15;6.17;;;2.87;;
20445;SDS011;10382;49.140;9.234;2024-02-14T03:29:44;14.73;;;3.93;;
20445;SDS011;10382;49.140;9.234;2024-02-14T03:32:14;4.83;;;3.43;;
20445;SDS011;10382;49.140;9.234;2024-02-14T03:34:42;6.97;;;2.97;;
20445;SDS011;10382;49.140;9.234;2024-02-14T03:37:10;10.20;;;3.40;;
20445;SDS011;10382;49.140;9.234;2024-02-14T03:39:36;4.70;;;4.27;;
20445;SDS011;10382;49.140;9.234;2024-02-14T03:42:04;3.20;;;2.90;;
20445;SDS011;10382;49.140;9.234;2024-02-14T03:44:32;11.10;;;3.90;;
20445;SDS011;10382;49.140;9.234;2024-02-14T03:46:59;3.80;;;2.60;;
20445;SDS011;10382;49.140;9.234;2024-02-14T03:49:27;5.33;;;3.03;;
20445;SDS011;10382;49.140;9.234;2024-02-14T03:51:55;5.83;;;4.00;;
20445;SDS011;10382;49.140;9.234;2024-02-14T03:54:22;3.50;;;2.63;;
20445;SDS011;10382;49.140;9.234;2024-02-14T03:56:49;6.43;;;4.10;;
20445;SDS011;10382;49.140;9.234;2024-02-14T03:59:17;4.20;;;2.67;;
20445;SDS011;10382;49.140;9.234;2024-02-14T04:01:49;5.83;;;3.87;;
20445;SDS011;10382;49.140;9.234;2024-02-14T04:04:18;6.73;;;2.73;;
20445;SDS011;10382;49.140;9.234;2024-02-14T04:06:46;8.87;;;3.20;;
20445;SDS011;10382;49.140;9.234;2024-02-14T04:09:13;10.37;;;2.93;;
20445;SDS011;10382;49.140;9.234;2024-02-14T04:11:40;3.43;;;3.17;;
20445;SDS011;10382;49.140;9.234;2024-02-14T04:14:07;4.23;;;3.37;;
20445;SDS011;10382;49.140;9.234;2024-02-14T04:16:34;4.23;;;3.83;;
20445;SDS011;10382;49.140;9.234;2024-02-14T04:19:01;3.23;;;2.77;;
20445;SDS011;10382;49.140;9.234;2024-02-14T04:21:28;10.00;;;3.60;;
20445;SDS011;10382;49.140;9.234;2024-02-14T04:23:57;6.57;;;3.97;;
20445;SDS011;10382;49.140;9.234;2024-02-14T04:26:24;4.87;;;3.63;;
20445;SDS011;10382;49.140;9.234;2024-02-14T04:28:51;8.43;;;3.00;;
20445;SDS011;10382;49.140;9.234;2024-02-14T04:31:18;7.20;;;3.33;;
20445;SDS011;10382;49.140;9.234;2024-02-14T04:33:45;3.87;;;3.20;;
20445;SDS011;10382;49.140;9.234;2024-02-14T04:36:16;8.43;;;3.73;;
20445;SDS011;10382;49.140;9.234;2024-02-14T04:38:43;8.40;;;4.57;;
20445;SDS011;10382;49.140;9.234;2024-02-14T04:41:12;7.10;;;3.27;;
20445;SDS011;10382;49.140;9.234;2024-02-14T04:43:39;4.47;;;2.87;;
20445;SDS011;10382;49.140;9.234;2024-02-14T04:46:06;3.57;;;3.07;;
20445;SDS011;10382;49.140;9.234;2024-02-14T04:48:33;3.00;;;2.60;;
20445;SDS011;10382;49.140;9.234;2024-02-14T04:51:00;3.50;;;3.20;;
20445;SDS011;10382;49.140;9.234;2024-02-14T04:53:27;7.80;;;3.17;;
20445;SDS011;10382;49.140;9.234;2024-02-14T04:55:54;6.10;;;2.60;;
20445;SDS011;10382;49.140;9.234;2024-02-14T04:58:22;3.13;;;2.83;;
20445;SDS011;10382;49.140;9.234;2024-02-14T05:00:49;5.20;;;3.53;;
20445;SDS011;10382;49.140;9.234;2024-02-14T05:03:16;6.33;;;2.70;;
20445;SDS011;10382;49.140;9.234;2024-02-14T05:05:43;3.93;;;3.03;;
20445;SDS011;10382;49.140;9.234;2024-02-14T05:08:10;7.93;;;3.10;;
20445;SDS011;10382;49.140;9.234;2024-02-14T05:10:37;6.60;;;3.00;;
20445;SDS011;10382;49.140;9.234;2024-02-14T05:13:04;6.70;;;2.70;;
20445;SDS011;10382;49.140;9.234;2024-02-14T05:15:32;4.77;;;3.17;;
20445;SDS011;10382;49.140;9.234;2024-02-14T05:18:00;5.03;;;2.80;;
20445;SDS011;10382;49.140;9.234;2024-02-14T05:20:27;6.80;;;2.47;;
20445;SDS011;10382;49.140;9.234;2024-02-14T05:22:53;5.43;;;3.87;;
20445;SDS011;10382;49.140;9.234;2024-02-14T05:25:20;3.17;;;2.37;;
20445;SDS011;10382;49.140;9.234;2024-02-14T05:27:47;5.80;;;2.67;;
20445;SDS011;10382;49.140;9.234;2024-02-14T05:30:14;5.50;;;2.73;;
20445;SDS011;10382;49.140;9.234;2024-02-14T05:32:43;6.87;;;2.60;;
20445;SDS011;10382;49.140;9.234;2024-02-14T05:35:10;6.70;;;2.60;;
20445;SDS011;10382;49.140;9.234;2024-02-14T05:37:37;3.33;;;2.30;;
20445;SDS011;10382;49.140;9.234;2024-02-14T05:40:04;4.03;;;2.10;;
20445;SDS011;10382;49.140;9.234;2024-02-14T05:42:32;5.90;;;2.73;;
20445;SDS011;10382;49.140;9.234;2024-02-14T05:45:00;5.17;;;3.10;;
20445;SDS011;10382;49.140;9.234;2024-02-14T05:47:28;3.07;;;2.37;;
20445;SDS011;10382;49.140;9.234;2024-02-14T05:49:58;4.27;;;2.70;;
20445;SDS011;10382;49.140;9.234;2024-02-14T05:52:25;4.80;;;2.77;;
20445;SDS011;10382;49.140;9.234;2024-02-14T05:54:52;4.10;;;2.87;;
20445;SDS011;10382;49.140;9.234;2024-02-14T05:57:19;8.90;;;3.00;;
20445;SDS011;10382;49.140;9.234;2024-02-14T05:59:46;7.90;;;4.70;;
20445;SDS011;10382;49.140;9.234;2024-02-14T06:02:12;5.60;;;2.40;;
20445;SDS011;10382;49.140;9.234;2024-02-14T06:04:39;10.73;;;2.60;;
20445;SDS011;10382;49.140;9.234;2024-02-14T06:07:08;3.27;;;2.50;;
20445;SDS011;10382;49.140;9.234;2024-02-14T06:09:36;4.90;;;2.47;;
20445;SDS011;10382;49.140;9.234;2024-02-14T06:12:03;4.00;;;2.70;;
20445;SDS011;10382;49.140;9.234;2024-02-14T06:14:31;3.17;;;2.40;;
20445;SDS011;10382;49.140;9.234;2024-02-14T06:16:59;4.00;;;2.80;;
20445;SDS011;10382;49.140;9.234;2024-02-14T06:19:26;3.67;;;2.70;;
20445;SDS011;10382;49.140;9.234;2024-02-14T06:21:53;5.83;;;3.17;;
20445;SDS011;10382;49.140;9.234;2024-02-14T06:24:21;2.07;;;1.97;;
20445;SDS011;10382;49.140;9.234;2024-02-14T06:26:48;2.43;;;2.27;;
20445;SDS011;10382;49.140;9.234;2024-02-14T06:29:15;7.10;;;2.53;;
20445;SDS011;10382;49.140;9.234;2024-02-14T06:31:41;5.33;;;3.13;;
20445;SDS011;10382;49.140;9.234;2024-02-14T06:34:08;12.17;;;3.10;;
20445;SDS011;10382;49.140;9.234;2024-02-14T06:36:35;5.90;;;2.53;;
20445;SDS011;10382;49.140;9.234;2024-02-14T06:39:02;3.77;;;2.40;;
20445;SDS011;10382;49.140;9.234;2024-02-14T06:41:31;1.93;;;1.80;;
20445;SDS011;10382;49.140;9.234;2024-02-14T06:43:58;4.30;;;2.20;;
20445;SDS011;10382;49.140;9.234;2024-02-14T06:46:25;7.23;;;3.30;;
20445;SDS011;10382;49.140;9.234;2024-02-14T06:48:52;4.67;;;4.03;;
20445;SDS011;10382;49.140;9.234;2024-02-14T06:51:19;3.17;;;2.97;;
20445;SDS011;10382;49.140;9.234;2024-02-14T06:53:46;8.50;;;3.57;;
20445;SDS011;10382;49.140;9.234;2024-02-14T06:56:13;4.40;;;3.47;;
20445;SDS011;10382;49.140;9.234;2024-02-14T06:58:42;4.23;;;3.40;;
20445;SDS011;10382;49.140;9.234;2024-02-14T07:01:08;4.20;;;2.73;;
20445;SDS011;10382;49.140;9.234;2024-02-14T07:03:38;13.00;;;3.20;;
20445;SDS011;10382;49.140;9.234;2024-02-14T07:06:05;7.70;;;3.17;;
20445;SDS011;10382;49.140;9.234;2024-02-14T07:08:32;5.40;;;3.47;;
20445;SDS011;10382;49.140;9.234;2024-02-14T07:10:59;4.30;;;3.30;;
20445;SDS011;10382;49.140;9.234;2024-02-14T07:13:26;3.23;;;2.80;;
20445;SDS011;10382;49.140;9.234;2024-02-14T07:15:55;3.97;;;3.57;;
20445;SDS011;10382;49.140;9.234;2024-02-14T07:18:21;4.17;;;3.13;;
20445;SDS011;10382;49.140;9.234;2024-02-14T07:20:48;4.90;;;3.77;;
20445;SDS011;10382;49.140;9.234;2024-02-14T07:23:15;2.23;;;2.10;;
20445;SDS011;10382;49.140;9.234;2024-02-14T07:25:43;4.60;;;2.70;;
20445;SDS011;10382;49.140;9.234;2024-02-14T07:28:09;5.00;;;2.60;;
20445;SDS011;10382;49.140;9.234;2024-02-14T07:30:37;6.13;;;2.83;;
20445;SDS011;10382;49.140;9.234;2024-02-14T07:33:05;3.20;;;2.87;;
20445;SDS011;10382;49.140;9.234;2024-02-14T07:35:33;8.47;;;3.20;;
20445;SDS011;10382;49.140;9.234;2024-02-14T07:38:00;6.47;;;3.40;;
20445;SDS011;10382;49.140;9.234;2024-02-14T07:40:27;9.20;;;3.03;;
20445;SDS011;10382;49.140;9.234;2024-02-14T07:42:56;3.30;;;3.00;;
20445;SDS011;10382;49.140;9.234;2024-02-14T07:45:23;10.13;;;3.60;;
20445;SDS011;10382;49.140;9.234;2024-02-14T07:47:50;4.67;;;4.20;;
20445;SDS011;10382;49.140;9.234;2024-02-14T07:50:18;7.87;;;3.40;;
20445;SDS011;10382;49.140;9.234;2024-02-14T07:52:45;5.67;;;3.40;;
20445;SDS011;10382;49.140;9.234;2024-02-14T07:55:13;4.63;;;3.20;;
20445;SDS011;10382;49.140;9.234;2024-02-14T07:57:40;5.37;;;3.13;;
20445;SDS011;10382;49.140;9.234;2024-02-14T08:00:08;4.77;;;3.10;;
20445;SDS011;10382;49.140;9.234;2024-02-14T08:02:37;4.77;;;2.70;;
20445;SDS011;10382;49.140;9.234;2024-02-14T08:05:04;10.63;;;3.23;;
20445;SDS011;10382;49.140;9.234;2024-02-14T08:07:32;12.00;;;3.97;;
20445;SDS011;10382;49.140;9.234;2024-02-14T08:09:59;7.17;;;3.90;;
20445;SDS011;10382;49.140;9.234;2024-02-14T08:12:26;5.83;;;3.17;;
20445;SDS011;10382;49.140;9.234;2024-02-14T08:14:53;4.50;;;3.30;;
20445;SDS011;10382;49.140;9.234;2024-02-14T08:17:20;8.13;;;3.70;;
20445;SDS011;10382;49.140;9.234;2024-02-14T08:19:47;8.83;;;3.33;;
20445;SDS011;10382;49.140;9.234;2024-02-14T08:22:14;4.30;;;3.07;;
20445;SDS011;10382;49.140;9.234;2024-02-14T08:24:42;12.50;;;2.63;;
20445;SDS011;10382;49.140;9.234;2024-02-14T08:27:09;3.90;;;3.47;;
20445;SDS011;10382;49.140;9.234;2024-02-14T08:29:36;5.50;;;3.07;;
20445;SDS011;10382;49.140;9.234;2024-02-14T08:32:03;10.60;;;3.20;;
20445;SDS011;10382;49.140;9.234;2024-02-14T08:34:30;5.83;;;3.27;;
20445;SDS011;10382;49.140;9.234;2024-02-14T08:36:57;12.40;;;3.20;;
20445;SDS011;10382;49.140;9.234;2024-02-14T08:39:24;6.40;;;2.93;;
20445;SDS011;10382;49.140;9.234;2024-02-14T08:41:52;2.87;;;2.63;;
20445;SDS011;10382;49.140;9.234;2024-02-14T08:44:19;4.33;;;2.57;;
20445;SDS011;10382;49.140;9.234;2024-02-14T08:46:46;8.87;;;3.60;;
20445;SDS011;10382;49.140;9.234;2024-02-14T08:49:14;6.13;;;2.87;;
20445;SDS011;10382;49.140;9.234;2024-02-14T08:51:41;30.23;;;3.80;;
20445;SDS011;10382;49.140;9.234;2024-02-14T08:54:11;8.70;;;2.90;;
20445;SDS011;10382;49.140;9.234;2024-02-14T08:56:38;9.63;;;3.67;;
20445;SDS011;10382;49.140;9.234;2024-02-14T08:59:07;8.60;;;2.47;;
20445;SDS011;10382;49.140;9.234;2024-02-14T09:01:33;4.50;;;2.53;;
20445;SDS011;10382;49.140;9.234;2024-02-14T09:04:01;2.50;;;2.17;;
20445;SDS011;10382;49.140;9.234;2024-02-14T09:06:28;4.67;;;2.77;;
20445;SDS011;10382;49.140;9.234;2024-02-14T09:08:54;5.03;;;4.57;;
20445;SDS011;10382;49.140;9.234;2024-02-14T09:11:22;3.80;;;2.13;;
20445;SDS011;10382;49.140;9.234;2024-02-14T09:13:50;9.00;;;3.40;;
20445;SDS011;10382;49.140;9.234;2024-02-14T09:16:22;9.20;;;3.60;;
20445;SDS011;10382;49.140;9.234;2024-02-14T09:18:49;3.93;;;2.60;;
20445;SDS011;10382;49.140;9.234;2024-02-14T09:21:16;9.20;;;2.87;;
20445;SDS011;10382;49.140;9.234;2024-02-14T09:23:46;10.83;;;3.40;;
20445;SDS011;10382;49.140;9.234;2024-02-14T09:26:13;7.87;;;2.53;;
20445;SDS011;10382;49.140;9.234;2024-02-14T09:28:41;8.37;;;3.13;;
20445;SDS011;10382;49.140;9.234;2024-02-14T09:31:08;4.00;;;2.80;;
20445;SDS011;10382;49.140;9.234;2024-02-14T09:33:37;3.20;;;2.93;;
20445;SDS011;10382;49.140;9.234;2024-02-14T09:36:05;8.30;;;2.73;;
20445;SDS011;10382;49.140;9.234;2024-02-14T09:38:32;6.70;;;3.17;;
20445;SDS011;10382;49.140;9.234;2024-02-14T09:41:01;3.30;;;2.80;;
20445;SDS011;10382;49.140;9.234;2024-02-14T09:43:34;3.23;;;2.93;;
20445;SDS011;10382;49.140;9.234;2024-02-14T09:46:04;10.13;;;2.30;;
20445;SDS011;10382;49.140;9.234;2024-02-14T09:48:32;5.97;;;2.87;;
20445;SDS011;10382;49.140;9.234;2024-02-14T09:51:01;7.27;;;2.30;;
20445;SDS011;10382;49.140;9.234;2024-02-14T09:53:29;7.60;;;3.40;;
20445;SDS011;10382;49.140;9.234;2024-02-14T09:55:56;2.83;;;2.47;;
20445;SDS011;10382;49.140;9.234;2024-02-14T09:58:25;4.00;;;2.80;;
20445;SDS011;10382;49.140;9.234;2024-02-14T10:00:53;4.83;;;2.63;;
20445;SDS011;10382;49.140;9.234;2024-02-14T10:03:26;3.53;;;2.30;;
20445;SDS011;10382;49.140;9.234;2024-02-14T10:05:53;3.47;;;3.17;;
20445;SDS011;10382;49.140;9.234;2024-02-14T10:08:21;2.70;;;2.50;;
20445;SDS011;10382;49.140;9.234;2024-02-14T10:10:49;6.93;;;3.53;;
20445;SDS011;10382;49.140;9.234;2024-02-14T10:13:16;8.30;;;2.63;;
20445;SDS011;10382;49.140;9.234;2024-02-14T10:15:42;2.57;;;2.37;;
20445;SDS011;10382;49.140;9.234;2024-02-14T10:18:09;2.40;;;2.20;;
20445;SDS011;10382;49.140;9.234;2024-02-14T10:20:36;2.93;;;2.70;;
20445;SDS011;10382;49.140;9.234;2024-02-14T10:23:08;3.60;;;2.07;;
20445;SDS011;10382;49.140;9.234;2024-02-14T10:25:38;5.40;;;2.40;;
20445;SDS011;10382;49.140;9.234;2024-02-14T10:28:05;4.90;;;2.47;;
20445;SDS011;10382;49.140;9.234;2024-02-14T10:30:33;10.00;;;2.67;;
20445;SDS011;10382;49.140;9.234;2024-02-14T10:33:03;5.63;;;3.00;;
20445;SDS011;10382;49.140;9.234;2024-02-14T10:35:32;2.40;;;2.30;;
20445;SDS011;10382;49.140;9.234;2024-02-14T10:37:59;3.80;;;2.90;;
20445;SDS011;10382;49.140;9.234;2024-02-14T10:40:28;2.60;;;2.30;;
20445;SDS011;10382;49.140;9.234;2024-02-14T10:42:57;3.00;;;2.50;;
20445;SDS011;10382;49.140;9.234;2024-02-14T10:45:24;3.00;;;2.60;;
20445;SDS011;10382;49.140;9.234;2024-02-14T10:47:51;10.40;;;3.37;;
20445;SDS011;10382;49.140;9.234;2024-02-14T10:50:20;8.80;;;2.57;;
20445;SDS011;10382;49.140;9.234;2024-02-14T10:52:48;9.00;;;3.17;;
20445;SDS011;10382;49.140;9.234;2024-02-14T10:55:16;3.27;;;2.97;;
20445;SDS011;10382;49.140;9.234;2024-02-14T10:57:43;5.20;;;2.40;;
20445;SDS011;10382;49.140;9.234;2024-02-14T11:00:14;4.00;;;3.30;;
20445;SDS011;10382;49.140;9.234;2024-02-14T11:02:42;3.90;;;3.17;;
20445;SDS011;10382;49.140;9.234;2024-02-14T11:05:11;7.00;;;4.50;;
20445;SDS011;10382;49.140;9.234;2024-02-14T11:07:43;5.73;;;3.47;;
20445;SDS011;10382;49.140;9.234;2024-02-14T11:10:13;4.53;;;3.80;;
20445;SDS011;10382;49.140;9.234;2024-02-14T11:12:41;4.50;;;4.10;;
20445;SDS011;10382;49.140;9.234;2024-02-14T11:15:10;29.83;;;4.20;;
20445;SDS011;10382;49.140;9.234;2024-02-14T11:17:43;6.03;;;3.00;;
20445;SDS011;10382;49.140;9.234;2024-02-14T11:20:14;5.37;;;2.73;;
20445;SDS011;10382;49.140;9.234;2024-02-14T11:22:49;9.73;;;2.60;;
20445;SDS011;10382;49.140;9.234;2024-02-14T11:25:21;10.43;;;2.70;;
20445;SDS011;10382;49.140;9.234;2024-02-14T11:27:49;7.33;;;3.63;;
20445;SDS011;10382;49.140;9.234;2024-02-14T11:30:27;6.13;;;2.80;;
20445;SDS011;10382;49.140;9.234;2024-02-14T11:32:58;6.00;;;3.90;;
20445;SDS011;10382;49.140;9.234;2024-02-14T11:35:40;15.60;;;2.63;;
20445;SDS011;10382;49.140;9.234;2024-02-14T11:38:07;4.70;;;2.50;;
20445;SDS011;10382;49.140;9.234;2024-02-14T11:40:35;7.80;;;2.87;;
20445;SDS011;10382;49.140;9.234;2024-02-14T11:43:03;13.50;;;3.53;;
20445;SDS011;10382;49.140;9.234;2024-02-14T11:45:32;6.03;;;2.83;;
20445;SDS011;10382;49.140;9.234;2024-02-14T11:47:59;8.93;;;4.10;;
20445;SDS011;10382;49.140;9.234;2024-02-14T11:50:26;6.50;;;3.20;;
20445;SDS011;10382;49.140;9.234;2024-02-14T11:52:53;6.13;;;4.07;;
20445;SDS011;10382;49.140;9.234;2024-02-14T11:55:26;5.03;;;2.80;;
20445;SDS011;10382;49.140;9.234;2024-02-14T11:57:54;3.80;;;3.23;;
20445;SDS011;10382;49.140;9.234;2024-02-14T12:00:21;2.70;;;2.50;;
20445;SDS011;10382;49.140;9.234;2024-02-14T12:02:50;2.87;;;2.63;;
20445;SDS011;10382;49.140;9.234;2024-02-14T12:05:17;5.80;;;2.70;;
20445;SDS011;10382;49.140;9.234;2024-02-14T12:07:45;6.23;;;4.00;;
20445;SDS011;10382;49.140;9.234;2024-02-14T12:10:12;7.03;;;3.40;;
20445;SDS011;10382;49.140;9.234;2024-02-14T12:12:39;6.13;;;3.30;;
20445;SDS011;10382;49.140;9.234;2024-02-14T12:15:09;7.37;;;3.03;;
20445;SDS011;10382;49.140;9.234;2024-02-14T12:17:36;2.63;;;2.40;;
20445;SDS011;10382;49.140;9.234;2024-02-14T12:20:09;2.70;;;2.37;;
20445;SDS011;10382;49.140;9.234;2024-02-14T12:22:39;3.10;;;2.40;;
20445;SDS011;10382;49.140;9.234;2024-02-14T12:25:06;3.20;;;2.00;;
20445;SDS011;10382;49.140;9.234;2024-02-14T12:27:36;6.63;;;2.00;;
20445;SDS011;10382;49.140;9.234;2024-02-14T12:30:03;3.93;;;2.23;;
20445;SDS011;10382;49.140;9.234;2024-02-14T12:32:31;2.83;;;1.97;;
20445;SDS011;10382;49.140;9.234;2024-02-14T12:34:58;3.37;;;3.07;;
20445;SDS011;10382;49.140;9.234;2024-02-14T12:37:27;11.97;;;2.13;;
20445;SDS011;10382;49.140;9.234;2024-02-14T12:39:54;2.33;;;2.20;;
20445;SDS011;10382;49.140;9.234;2024-02-14T12:42:21;4.80;;;2.30;;
20445;SDS011;10382;49.140;9.234;2024-02-14T12:44:51;6.60;;;3.83;;
20445;SDS011;10382;49.140;9.234;2024-02-14T12:47:22;2.80;;;2.43;;
20445;SDS011;10382;49.140;9.234;2024-02-14T12:49:51;4.90;;;2.30;;
20445;SDS011;10382;49.140;9.234;2024-02-14T12:52:18;3.33;;;1.90;;
20445;SDS011;10382;49.140;9.234;2024-02-14T12:54:46;6.63;;;2.20;;
20445;SDS011;10382;49.140;9.234;2024-02-14T12:57:15;8.10;;;1.80;;
20445;SDS011;10382;49.140;9.234;2024-02-14T12:59:42;4.47;;;2.40;;
20445;SDS011;10382;49.140;9.234;2024-02-14T13:02:09;3.00;;;2.70;;
20445;SDS011;10382;49.140;9.234;2024-02-14T13:04:36;3.50;;;3.20;;
20445;SDS011;10382;49.140;9.234;2024-02-14T13:07:04;2.07;;;1.97;;
20445;SDS011;10382;49.140;9.234;2024-02-14T13:09:30;8.20;;;2.67;;
20445;SDS011;10382;49.140;9.234;2024-02-14T13:11:59;5.03;;;2.67;;
20445;SDS011;10382;49.140;9.234;2024-02-14T13:14:25;2.40;;;1.90;;
20445;SDS011;10382;49.140;9.234;2024-02-14T13:16:53;2.97;;;2.20;;
20445;SDS011;10382;49.140;9.234;2024-02-14T13:19:20;2.07;;;1.97;;
20445;SDS011;10382;49.140;9.234;2024-02-14T13:21:48;3.97;;;2.63;;
20445;SDS011;10382;49.140;9.234;2024-02-14T13:24:15;3.57;;;2.00;;
20445;SDS011;10382;49.140;9.234;2024-02-14T13:26:42;2.60;;;1.93;;
20445;SDS011;10382;49.140;9.234;2024-02-14T13:29:11;4.57;;;2.97;;
20445;SDS011;10382;49.140;9.234;2024-02-14T13:31:38;2.33;;;2.13;;
20445;SDS011;10382;49.140;9.234;2024-02-14T13:34:05;2.33;;;2.13;;
20445;SDS011;10382;49.140;9.234;2024-02-14T13:36:31;2.07;;;1.87;;
20445;SDS011;10382;49.140;9.234;2024-02-14T13:38:58;2.30;;;2.10;;
20445;SDS011;10382;49.140;9.234;2024-02-14T13:41:26;3.57;;;2.50;;
20445;SDS011;10382;49.140;9.234;2024-02-14T13:43:53;6.60;;;3.80;;
20445;SDS011;10382;49.140;9.234;2024-02-14T13:46:22;2.57;;;2.37;;
20445;SDS011;10382;49.140;9.234;2024-02-14T13:48:51;5.33;;;3.00;;
20445;SDS011;10382;49.140;9.234;2024-02-14T13:51:18;2.87;;;2.20;;
20445;SDS011;10382;49.140;9.234;2024-02-14T13:53:45;3.43;;;2.30;;
20445;SDS011;10382;49.140;9.234;2024-02-14T13:56:12;2.83;;;2.63;;
20445;SDS011;10382;49.140;9.234;2024-02-14T13:58:41;3.10;;;2.80;;
20445;SDS011;10382;49.140;9.234;2024-02-14T14:01:09;3.57;;;2.83;;
20445;SDS011;10382;49.140;9.234;2024-02-14T14:03:38;3.83;;;2.50;;
20445;SDS011;10382;49.140;9.234;2024-02-14T14:06:06;5.43;;;2.30;;
20445;SDS011;10382;49.140;9.234;2024-02-14T14:08:34;9.17;;;2.97;;
20445;SDS011;10382;49.140;9.234;2024-02-14T14:11:02;7.80;;;2.70;;
20445;SDS011;10382;49.140;9.234;2024-02-14T14:13:29;5.17;;;2.37;;
20445;SDS011;10382;49.140;9.234;2024-02-14T14:15:58;3.20;;;3.00;;
20445;SDS011;10382;49.140;9.234;2024-02-14T14:18:25;3.80;;;2.70;;
20445;SDS011;10382;49.140;9.234;2024-02-14T14:20:54;19.47;;;9.07;;
20445;SDS011;10382;49.140;9.234;2024-02-14T14:23:21;8.30;;;5.67;;
20445;SDS011;10382;49.140;9.234;2024-02-14T14:25:47;8.87;;;4.60;;
20445;SDS011;10382;49.140;9.234;2024-02-14T14:28:14;11.20;;;4.40;;
20445;SDS011;10382;49.140;9.234;2024-02-14T14:30:42;3.87;;;2.90;;
20445;SDS011;10382;49.140;9.234;2024-02-14T14:33:10;4.83;;;2.70;;
20445;SDS011;10382;49.140;9.234;2024-02-14T14:35:37;5.27;;;2.97;;
20445;SDS011;10382;49.140;9.234;2024-02-14T14:38:05;3.67;;;3.30;;
20445;SDS011;10382;49.140;9.234;2024-02-14T14:40:32;7.97;;;3.47;;
20445;SDS011;10382;49.140;9.234;2024-02-14T14:43:02;4.73;;;3.00;;
20445;SDS011;10382;49.140;9.234;2024-02-14T14:45:29;4.50;;;3.47;;
20445;SDS011;10382;49.140;9.234;2024-02-14T14:47:56;5.47;;;3.73;;